createdAt,value
2017-11-10T00:02:13.828Z,7.50
2017-11-10T00:04:41.272Z,7.50
2017-11-10T00:07:08.733Z,7.50
2017-11-10T00:09:36.172Z,7.50
2017-11-10T00:12:03.635Z,7.40
2017-11-10T00:14:31.081Z,7.40
2017-11-10T00:16:58.518Z,7.40
2017-11-10T00:19:26.727Z,7.40
2017-11-10T00:21:54.181Z,7.30
2017-11-10T00:24:21.632Z,7.40
2017-11-10T00:26:49.079Z,7.30
2017-11-10T00:29:16.518Z,7.30
2017-11-10T00:31:44.736Z,7.30
2017-11-10T00:34:12.180Z,7.30
2017-11-10T00:36:39.637Z,7.40
2017-11-10T00:39:07.890Z,7.30
2017-11-10T00:41:35.336Z,7.30
2017-11-10T00:44:03.544Z,7.30
2017-11-10T00:46:30.999Z,7.30
2017-11-10T00:48:58.451Z,7.40
2017-11-10T00:51:25.907Z,7.30
2017-11-10T00:53:53.358Z,7.30
2017-11-10T00:56:20.799Z,7.30
2017-11-10T00:58:48.248Z,7.40
2017-11-10T01:01:16.460Z,7.30
2017-11-10T01:03:43.910Z,7.30
2017-11-10T01:06:11.360Z,7.30
2017-11-10T01:08:38.815Z,7.30
2017-11-10T01:11:06.264Z,7.30
2017-11-10T01:13:36.495Z,7.30
2017-11-10T01:16:03.952Z,7.30
2017-11-10T01:18:31.411Z,7.30
2017-11-10T01:20:58.863Z,7.30
2017-11-10T01:23:26.320Z,7.20
2017-11-10T01:25:53.779Z,7.20
2017-11-10T01:28:21.233Z,7.20
2017-11-10T01:30:48.689Z,7.20
2017-11-10T01:33:16.146Z,7.20
2017-11-10T01:35:43.583Z,7.20
2017-11-10T01:38:11.028Z,7.20
2017-11-10T01:40:39.253Z,7.10
2017-11-10T01:43:06.712Z,7.10
2017-11-10T01:45:34.155Z,7.10
2017-11-10T01:48:07.499Z,7.10
2017-11-10T01:50:35.712Z,7.10
2017-11-10T01:53:03.168Z,7.10
2017-11-10T01:55:30.620Z,7.10
2017-11-10T01:57:58.063Z,7.10
2017-11-10T02:00:25.526Z,7.10
2017-11-10T02:02:52.963Z,7.10
2017-11-10T02:05:20.417Z,7.10
2017-11-10T02:07:48.632Z,7.10
2017-11-10T02:10:16.095Z,7.10
2017-11-10T02:12:43.554Z,7.10
2017-11-10T02:15:11.017Z,7.00
2017-11-10T02:17:38.445Z,7.00
2017-11-10T02:20:05.894Z,7.10
2017-11-10T02:22:33.339Z,7.00
2017-11-10T02:25:00.809Z,7.00
2017-11-10T02:27:28.232Z,7.00
2017-11-10T02:29:56.446Z,6.90
2017-11-10T02:32:23.904Z,6.90
2017-11-10T02:34:51.358Z,6.80
2017-11-10T02:37:18.813Z,6.70
2017-11-10T02:39:46.263Z,6.70
2017-11-10T02:42:13.704Z,6.60
2017-11-10T02:44:41.156Z,6.60
2017-11-10T02:47:08.596Z,6.60
2017-11-10T02:49:36.810Z,6.60
2017-11-10T02:52:04.265Z,6.60
2017-11-10T02:54:31.720Z,6.60
2017-11-10T02:56:59.176Z,6.60
2017-11-10T02:59:26.635Z,6.60
2017-11-10T03:01:54.088Z,6.50
2017-11-10T03:04:21.540Z,6.60
2017-11-10T03:06:48.972Z,6.60
2017-11-10T03:09:17.172Z,6.60
2017-11-10T03:11:44.634Z,6.50
2017-11-10T03:16:46.725Z,6.60
2017-11-10T03:19:14.163Z,6.50
2017-11-10T03:21:41.619Z,6.60
2017-11-10T03:24:09.077Z,6.60
2017-11-10T03:26:36.532Z,6.70
2017-11-10T03:29:03.973Z,6.80
2017-11-10T03:31:31.416Z,6.80
2017-11-10T03:33:59.640Z,6.80
2017-11-10T03:36:27.084Z,6.80
2017-11-10T03:38:54.533Z,6.80
2017-11-10T03:41:21.984Z,6.70
2017-11-10T03:43:49.424Z,6.60
2017-11-10T03:46:16.877Z,6.70
2017-11-10T03:48:44.324Z,6.70
2017-11-10T03:51:12.548Z,6.60
2017-11-10T03:53:40.005Z,6.60
2017-11-10T03:56:07.476Z,6.60
2017-11-10T03:58:34.923Z,6.70
2017-11-10T04:01:02.392Z,6.60
2017-11-10T04:03:29.840Z,6.60
2017-11-10T04:05:57.280Z,6.60
2017-11-10T04:08:24.742Z,6.50
2017-11-10T04:10:52.188Z,6.50
2017-11-10T04:13:19.648Z,6.50
2017-11-10T04:15:47.089Z,6.40
2017-11-10T04:18:14.542Z,6.40
2017-11-10T04:20:42.000Z,6.50
2017-11-10T04:23:09.462Z,6.40
2017-11-10T04:25:36.914Z,6.50
2017-11-10T04:28:04.368Z,6.40
2017-11-10T04:30:31.821Z,6.50
2017-11-10T04:32:59.259Z,6.60
2017-11-10T04:35:26.703Z,6.60
2017-11-10T04:37:54.933Z,6.80
2017-11-10T04:40:22.380Z,6.80
2017-11-10T04:42:49.857Z,6.80
2017-11-10T04:45:18.139Z,6.90
2017-11-10T04:47:45.575Z,6.80
2017-11-10T04:50:13.019Z,6.70
2017-11-10T04:52:40.463Z,6.80
2017-11-10T04:55:07.919Z,6.80
2017-11-10T04:57:35.378Z,6.80
2017-11-10T05:00:02.836Z,6.80
2017-11-10T05:02:30.288Z,6.80
2017-11-10T05:04:57.751Z,6.80
2017-11-10T05:07:25.200Z,6.80
2017-11-10T05:09:53.412Z,6.80
2017-11-10T05:12:20.865Z,6.80
2017-11-10T05:14:48.320Z,6.80
2017-11-10T05:17:15.763Z,6.90
2017-11-10T05:19:43.213Z,6.90
2017-11-10T05:22:10.650Z,6.90
2017-11-10T05:24:38.108Z,6.90
2017-11-10T05:27:05.560Z,6.80
2017-11-10T05:29:32.999Z,6.80
2017-11-10T05:32:01.209Z,6.90
2017-11-10T05:34:28.651Z,6.90
2017-11-10T05:36:56.104Z,6.90
2017-11-10T05:39:23.565Z,6.90
2017-11-10T05:41:51.020Z,6.90
2017-11-10T05:44:18.456Z,6.80
2017-11-10T05:46:45.909Z,6.80
2017-11-10T05:49:13.348Z,6.80
2017-11-10T05:51:41.564Z,6.80
2017-11-10T05:54:09.016Z,6.80
2017-11-10T05:56:36.471Z,6.80
2017-11-10T05:59:03.928Z,6.90
2017-11-10T06:01:31.384Z,6.90
2017-11-10T06:03:58.833Z,6.80
2017-11-10T06:06:26.277Z,6.80
2017-11-10T06:08:53.719Z,6.80
2017-11-10T06:11:21.939Z,6.80
2017-11-10T06:13:49.382Z,6.90
2017-11-10T06:16:16.830Z,6.80
2017-11-10T06:18:44.276Z,6.90
2017-11-10T06:21:11.724Z,6.90
2017-11-10T06:23:39.945Z,6.90
2017-11-10T06:26:07.392Z,6.90
2017-11-10T06:28:34.835Z,6.90
2017-11-10T06:31:02.293Z,6.90
2017-11-10T06:33:29.747Z,6.90
2017-11-10T06:35:57.204Z,6.90
2017-11-10T06:38:24.720Z,6.90
2017-11-10T06:40:52.960Z,7.00
2017-11-10T06:43:20.412Z,7.00
2017-11-10T06:45:47.875Z,7.30
2017-11-10T06:48:15.312Z,8.00
2017-11-10T06:50:42.761Z,8.00
2017-11-10T06:53:10.216Z,7.70
2017-11-10T06:55:37.657Z,7.50
2017-11-10T06:58:05.233Z,7.30
2017-11-10T07:00:32.688Z,7.20
2017-11-10T07:03:00.145Z,7.20
2017-11-10T07:05:27.595Z,7.10
2017-11-10T07:07:55.602Z,7.00
2017-11-10T07:10:23.036Z,7.00
2017-11-10T07:12:50.513Z,7.00
2017-11-10T07:15:17.964Z,7.00
2017-11-10T07:17:45.405Z,7.00
2017-11-10T07:20:12.852Z,7.00
2017-11-10T07:22:40.913Z,7.10
2017-11-10T07:25:08.354Z,7.10
2017-11-10T07:27:35.828Z,7.30
2017-11-10T07:30:03.266Z,7.20
2017-11-10T07:32:30.715Z,7.20
2017-11-10T07:34:58.924Z,7.30
2017-11-10T07:37:26.376Z,7.30
2017-11-10T07:39:53.829Z,7.30
2017-11-10T07:42:21.281Z,7.30
2017-11-10T07:44:48.739Z,7.40
2017-11-10T07:47:16.949Z,7.40
2017-11-10T07:49:44.419Z,7.40
2017-11-10T07:52:11.860Z,7.40
2017-11-10T07:54:39.319Z,7.40
2017-11-10T07:57:06.773Z,7.40
2017-11-10T07:59:34.237Z,7.40
2017-11-10T08:02:01.688Z,7.40
2017-11-10T08:04:29.133Z,7.50
2017-11-10T08:06:56.573Z,7.50
2017-11-10T08:09:24.028Z,7.50
2017-11-10T08:11:51.472Z,7.60
2017-11-10T08:14:18.927Z,7.60
2017-11-10T08:16:46.363Z,7.60
2017-11-10T08:19:13.816Z,7.70
2017-11-10T08:21:42.032Z,7.70
2017-11-10T08:24:09.507Z,7.70
2017-11-10T08:26:36.952Z,7.70
2017-11-10T08:29:04.432Z,7.70
2017-11-10T08:31:31.880Z,7.70
2017-11-10T08:33:59.348Z,7.70
2017-11-10T08:36:26.793Z,7.60
2017-11-10T08:38:54.240Z,7.60
2017-11-10T08:41:21.687Z,7.70
2017-11-10T08:43:49.131Z,7.70
2017-11-10T08:46:16.704Z,7.70
2017-11-10T08:48:44.148Z,7.60
2017-11-10T08:51:11.615Z,7.60
2017-11-10T08:53:39.070Z,7.70
2017-11-10T08:56:06.515Z,7.70
2017-11-10T08:58:33.950Z,7.70
2017-11-10T09:01:01.412Z,7.70
2017-11-10T09:03:28.855Z,7.70
2017-11-10T09:05:56.313Z,7.70
2017-11-10T09:08:23.783Z,7.70
2017-11-10T09:10:51.235Z,7.70
2017-11-10T09:13:18.722Z,7.60
2017-11-10T09:15:46.176Z,7.60
2017-11-10T09:18:13.626Z,7.70
2017-11-10T09:20:41.076Z,7.60
2017-11-10T09:23:09.286Z,7.60
2017-11-10T09:25:36.724Z,7.60
2017-11-10T09:28:09.836Z,7.60
2017-11-10T09:30:37.772Z,7.60
2017-11-10T09:33:10.940Z,7.60
2017-11-10T09:35:44.135Z,7.60
2017-11-10T09:38:17.112Z,7.60
2017-11-10T09:43:49.447Z,7.50
2017-11-10T09:46:19.328Z,7.60
2017-11-10T09:48:52.417Z,7.50
2017-11-10T09:54:22.883Z,7.60
2017-11-10T09:56:53.121Z,7.60
2017-11-10T09:59:29.348Z,7.60
2017-11-10T10:01:58.369Z,7.60
2017-11-10T10:04:32.274Z,7.60
2017-11-10T10:07:03.307Z,7.60
2017-11-10T10:12:47.254Z,7.70
2017-11-10T10:18:20.237Z,7.70
2017-11-10T10:20:53.273Z,7.60
2017-11-10T10:23:20.712Z,7.70
2017-11-10T10:25:48.159Z,7.60
2017-11-10T10:28:15.611Z,7.70
2017-11-10T10:30:43.052Z,7.50
2017-11-10T10:33:10.505Z,7.50
2017-11-10T10:35:37.961Z,7.70
2017-11-10T10:38:05.415Z,7.70
2017-11-10T10:40:32.856Z,7.70
2017-11-10T10:43:00.296Z,7.70
2017-11-10T10:45:28.524Z,7.80
2017-11-10T10:47:55.980Z,7.70
2017-11-10T10:50:23.425Z,7.70
2017-11-10T10:52:50.892Z,7.70
2017-11-10T10:55:18.336Z,7.70
2017-11-10T10:57:45.780Z,7.70
2017-11-10T11:00:13.237Z,7.70
2017-11-10T11:02:40.680Z,7.70
2017-11-10T11:05:08.125Z,7.60
2017-11-10T11:07:36.329Z,7.50
2017-11-10T11:10:03.779Z,7.60
2017-11-10T11:12:31.234Z,7.50
2017-11-10T11:14:58.691Z,7.50
2017-11-10T11:17:26.125Z,7.50
2017-11-10T11:19:53.572Z,7.40
2017-11-10T11:22:21.775Z,7.40
2017-11-10T11:24:49.220Z,7.40
2017-11-10T11:27:16.661Z,7.30
2017-11-10T11:29:44.884Z,7.30
2017-11-10T11:32:12.328Z,7.30
2017-11-10T11:34:39.772Z,7.40
2017-11-10T11:37:07.228Z,7.40
2017-11-10T11:39:34.664Z,7.40
2017-11-10T11:42:02.108Z,7.30
2017-11-10T11:44:30.312Z,7.20
2017-11-10T11:46:57.773Z,7.10
2017-11-10T11:49:25.208Z,7.30
2017-11-10T11:51:52.660Z,7.20
2017-11-10T11:54:20.896Z,7.10
2017-11-10T11:56:48.363Z,7.20
2017-11-10T11:59:15.804Z,7.10
2017-11-10T12:01:43.252Z,7.20
2017-11-10T12:04:10.720Z,7.10
2017-11-10T12:06:38.207Z,7.10
2017-11-10T12:09:05.656Z,7.10
2017-11-10T12:11:33.868Z,7.10
2017-11-10T12:14:01.324Z,7.10
2017-11-10T12:16:28.789Z,7.10
2017-11-10T12:18:56.237Z,7.20
2017-11-10T12:21:23.709Z,7.20
2017-11-10T12:23:51.152Z,7.10
2017-11-10T12:26:18.588Z,7.10
2017-11-10T12:28:46.030Z,7.10
2017-11-10T12:31:14.249Z,7.20
2017-11-10T12:33:41.721Z,7.20
2017-11-10T12:36:09.160Z,7.10
2017-11-10T12:38:36.608Z,7.10
2017-11-10T12:41:04.055Z,7.10
2017-11-10T12:43:31.507Z,7.10
2017-11-10T12:45:58.941Z,7.10
2017-11-10T12:48:27.155Z,7.10
2017-11-10T12:50:54.598Z,7.10
2017-11-10T12:53:22.065Z,7.10
2017-11-10T12:55:49.503Z,7.10
2017-11-10T12:58:16.939Z,7.20
2017-11-10T13:00:45.144Z,7.20
2017-11-10T13:03:12.595Z,7.20
2017-11-10T13:05:40.047Z,7.30
2017-11-10T13:08:07.480Z,7.30
2017-11-10T13:10:35.701Z,7.40
2017-11-10T13:13:03.136Z,7.40
2017-11-10T13:15:30.575Z,7.50
2017-11-10T13:17:58.021Z,7.50
2017-11-10T13:20:26.224Z,7.50
2017-11-10T13:22:53.679Z,7.50
2017-11-10T13:25:21.116Z,7.40
2017-11-10T13:27:48.564Z,7.40
2017-11-10T13:30:16.788Z,7.40
2017-11-10T13:32:44.235Z,7.40
2017-11-10T13:35:11.685Z,7.40
2017-11-10T13:37:39.144Z,7.50
2017-11-10T13:40:06.652Z,7.40
2017-11-10T13:42:34.877Z,7.30
2017-11-10T13:45:02.325Z,7.30
2017-11-10T13:47:29.776Z,7.30
2017-11-10T13:49:57.249Z,7.30
2017-11-10T13:52:24.687Z,7.30
2017-11-10T13:54:52.128Z,7.20
2017-11-10T13:57:19.572Z,7.20
2017-11-10T13:59:47.796Z,7.20
2017-11-10T14:02:15.249Z,7.20
2017-11-10T14:04:42.721Z,7.20
2017-11-10T14:07:10.168Z,7.20
2017-11-10T14:09:37.611Z,7.20
2017-11-10T14:12:05.057Z,7.10
2017-11-10T14:14:32.501Z,7.20
2017-11-10T14:16:59.952Z,7.20
2017-11-10T14:19:27.389Z,7.20
2017-11-10T14:21:55.598Z,7.20
2017-11-10T14:24:23.032Z,7.20
2017-11-10T14:26:50.484Z,7.20
2017-11-10T14:29:18.685Z,7.20
2017-11-10T14:31:46.204Z,7.10
2017-11-10T14:34:14.409Z,7.20
2017-11-10T14:36:41.944Z,7.20
2017-11-10T14:39:10.221Z,7.20
2017-11-10T14:41:38.434Z,7.20
2017-11-10T14:44:05.872Z,7.20
2017-11-10T14:46:33.333Z,7.20
2017-11-10T14:49:00.760Z,7.20
2017-11-10T14:51:29.022Z,7.30
2017-11-10T14:53:57.233Z,7.40
2017-11-10T14:56:24.688Z,7.40
2017-11-10T14:58:52.128Z,7.30
2017-11-10T15:01:19.577Z,7.40
2017-11-10T15:03:47.019Z,7.40
2017-11-10T15:06:15.236Z,7.40
2017-11-10T15:08:42.754Z,7.40
2017-11-10T15:11:10.971Z,7.50
2017-11-10T15:13:38.421Z,7.50
2017-11-10T15:16:05.860Z,7.50
2017-11-10T15:18:33.306Z,7.50
2017-11-10T15:21:01.509Z,7.60
2017-11-10T15:23:28.960Z,7.50
2017-11-10T15:25:56.399Z,7.50
2017-11-10T15:28:23.846Z,7.60
2017-11-10T15:30:52.044Z,7.50
2017-11-10T15:33:19.495Z,7.50
2017-11-10T15:35:46.932Z,7.50
2017-11-10T15:38:14.389Z,7.50
2017-11-10T15:40:42.588Z,7.40
2017-11-10T15:43:10.040Z,7.40
2017-11-10T15:45:37.473Z,7.50
2017-11-10T15:48:04.932Z,7.40
2017-11-10T15:50:32.375Z,7.40
2017-11-10T15:53:00.593Z,7.30
2017-11-10T15:55:28.039Z,7.30
2017-11-10T15:57:55.508Z,7.30
2017-11-10T16:00:22.968Z,7.30
2017-11-10T16:02:50.408Z,7.30
2017-11-10T16:05:17.853Z,7.30
2017-11-10T16:07:45.285Z,7.30
2017-11-10T16:10:13.493Z,7.20
2017-11-10T16:12:40.928Z,7.20
2017-11-10T16:15:08.367Z,7.20
2017-11-10T16:17:36.579Z,7.20
2017-11-10T16:20:04.019Z,7.20
2017-11-10T16:22:31.464Z,7.20
2017-11-10T16:24:59.669Z,7.30
2017-11-10T16:27:27.107Z,7.20
2017-11-10T16:29:54.636Z,7.30
2017-11-10T16:32:22.854Z,7.20
2017-11-10T16:34:50.294Z,7.20
2017-11-10T16:37:17.732Z,7.30
2017-11-10T16:39:45.937Z,7.40
2017-11-10T16:42:13.376Z,7.30
2017-11-10T16:44:40.810Z,7.40
2017-11-10T16:47:09.023Z,7.30
2017-11-10T16:49:36.473Z,7.20
2017-11-10T16:52:03.916Z,7.20
2017-11-10T16:54:31.349Z,7.20
2017-11-10T16:56:59.568Z,7.30
2017-11-10T16:59:27.008Z,7.30
2017-11-10T17:01:54.444Z,7.40
2017-11-10T17:04:22.649Z,7.40
2017-11-10T17:06:50.098Z,7.40
2017-11-10T17:09:17.523Z,7.30
2017-11-10T17:11:45.743Z,7.30
2017-11-10T17:14:13.188Z,7.30
2017-11-10T17:16:40.639Z,7.40
2017-11-10T17:19:08.072Z,7.40
2017-11-10T17:21:35.520Z,7.50
2017-11-10T17:24:03.733Z,7.50
2017-11-10T17:26:31.192Z,7.50
2017-11-10T17:28:58.624Z,7.50
2017-11-10T17:31:26.333Z,7.50
2017-11-10T17:33:53.778Z,7.50
2017-11-10T17:36:21.220Z,7.60
2017-11-10T17:38:48.673Z,7.60
2017-11-10T17:41:16.132Z,7.60
2017-11-10T17:43:43.583Z,7.60
2017-11-10T17:46:11.016Z,7.60
2017-11-10T17:48:39.230Z,7.50
2017-11-10T17:51:06.676Z,7.50
2017-11-10T17:53:34.124Z,7.50
2017-11-10T17:56:01.564Z,7.60
2017-11-10T17:58:29.011Z,7.50
2017-11-10T18:00:57.212Z,7.50
2017-11-10T18:03:24.664Z,7.50
2017-11-10T18:05:52.093Z,7.60
2017-11-10T18:08:20.299Z,7.60
2017-11-10T18:10:47.729Z,7.50
2017-11-10T18:13:15.180Z,7.70
2017-11-10T18:15:43.384Z,7.60
2017-11-10T18:18:10.844Z,7.60
2017-11-10T18:20:38.277Z,7.60
2017-11-10T18:23:05.728Z,7.60
2017-11-10T18:25:33.939Z,7.60
2017-11-10T18:28:01.515Z,7.60
2017-11-10T18:30:28.947Z,7.70
2017-11-10T18:32:56.412Z,7.70
2017-11-10T18:35:23.871Z,7.70
2017-11-10T18:37:51.317Z,7.80
2017-11-10T18:40:18.804Z,7.70
2017-11-10T18:42:47.043Z,7.80
2017-11-10T18:45:14.499Z,7.80
2017-11-10T18:47:41.949Z,7.90
2017-11-10T18:50:09.410Z,7.90
2017-11-10T18:52:36.860Z,7.80
2017-11-10T18:55:04.329Z,7.90
2017-11-10T18:57:32.532Z,8.00
2017-11-10T19:00:00.008Z,8.00
2017-11-10T19:02:28.166Z,8.00
2017-11-10T19:04:55.628Z,7.90
2017-11-10T19:07:23.085Z,7.90
2017-11-10T19:09:50.549Z,7.90
2017-11-10T19:12:18.777Z,8.10
2017-11-10T19:14:46.228Z,8.00
2017-11-10T19:17:13.673Z,8.10
2017-11-10T19:19:41.135Z,8.20
2017-11-10T19:22:08.943Z,8.20
2017-11-10T19:24:36.400Z,8.20
2017-11-10T19:27:03.885Z,8.20
2017-11-10T19:29:32.074Z,8.30
2017-11-10T19:31:59.525Z,8.30
2017-11-10T19:34:26.990Z,8.30
2017-11-10T19:36:54.437Z,8.40
2017-11-10T19:39:21.875Z,8.40
2017-11-10T19:41:50.123Z,8.40
2017-11-10T19:44:17.580Z,8.40
2017-11-10T19:46:45.044Z,8.40
2017-11-10T19:49:12.520Z,8.50
2017-11-10T19:51:40.005Z,8.50
2017-11-10T19:54:07.450Z,8.40
2017-11-10T19:56:35.271Z,8.50
2017-11-10T19:59:02.695Z,8.40
2017-11-10T20:01:30.176Z,8.40
2017-11-10T20:03:57.636Z,8.30
2017-11-10T20:06:25.386Z,8.20
2017-11-10T20:08:52.877Z,8.10
2017-11-10T20:11:21.157Z,8.00
2017-11-10T20:13:49.386Z,8.00
2017-11-10T20:16:16.939Z,8.00
2017-11-10T20:18:45.198Z,8.10
2017-11-10T20:21:12.904Z,8.10
2017-11-10T20:23:40.336Z,8.10
2017-11-10T20:26:07.801Z,8.00
2017-11-10T20:28:35.310Z,8.00
2017-11-10T20:31:02.804Z,8.00
2017-11-10T20:33:30.274Z,7.90
2017-11-10T20:35:57.710Z,8.00
2017-11-10T20:38:25.175Z,8.00
2017-11-10T20:40:52.677Z,8.00
2017-11-10T20:43:20.924Z,8.10
2017-11-10T20:45:48.376Z,8.00
2017-11-10T20:48:15.831Z,8.00
2017-11-10T20:50:43.296Z,8.00
2017-11-10T20:53:10.746Z,8.00
2017-11-10T20:55:38.199Z,8.00
2017-11-10T20:58:05.640Z,8.00
2017-11-10T21:00:33.091Z,8.00
2017-11-10T21:03:00.536Z,8.00
2017-11-10T21:05:27.991Z,8.00
2017-11-10T21:07:55.443Z,8.00
2017-11-10T21:10:22.912Z,7.90
2017-11-10T21:12:50.373Z,7.90
2017-11-10T21:15:18.343Z,7.90
2017-11-10T21:17:46.053Z,7.90
2017-11-10T21:20:14.272Z,7.90
2017-11-10T21:22:41.737Z,7.90
2017-11-10T21:25:09.175Z,7.90
2017-11-10T21:27:36.636Z,7.90
2017-11-10T21:30:04.088Z,8.00
2017-11-10T21:32:31.540Z,7.90
2017-11-10T21:34:59.023Z,8.00
2017-11-10T21:37:26.483Z,7.90
2017-11-10T21:39:53.984Z,7.90
2017-11-10T21:42:22.948Z,7.90
2017-11-10T21:44:50.415Z,7.90
2017-11-10T21:47:18.644Z,7.90
2017-11-10T21:49:46.094Z,7.90
2017-11-10T21:52:13.555Z,8.00
2017-11-10T21:54:41.024Z,8.10
2017-11-10T21:57:08.470Z,8.00
2017-11-10T21:59:35.924Z,8.00
2017-11-10T22:02:03.397Z,8.10
2017-11-10T22:04:30.892Z,8.00
2017-11-10T22:06:59.123Z,8.00
2017-11-10T22:09:26.609Z,8.00
2017-11-10T22:11:54.415Z,8.00
2017-11-10T22:14:21.901Z,8.10
2017-11-10T22:16:49.397Z,8.00
2017-11-10T22:19:18.288Z,8.00
2017-11-10T22:21:46.560Z,8.00
2017-11-10T22:24:14.820Z,8.00
2017-11-10T22:26:42.289Z,8.00
2017-11-10T22:29:10.781Z,8.00
2017-11-10T22:31:38.280Z,8.00
2017-11-10T22:34:05.872Z,8.00
2017-11-10T22:36:33.309Z,8.10
2017-11-10T22:39:00.777Z,8.10
2017-11-10T22:41:28.246Z,8.00
2017-11-10T22:43:55.714Z,8.00
2017-11-10T22:46:23.183Z,8.00
2017-11-10T22:48:51.396Z,8.00
2017-11-10T22:51:18.840Z,8.00
2017-11-10T22:53:46.279Z,8.00
2017-11-10T22:56:13.717Z,8.10
2017-11-10T22:58:41.927Z,8.00
2017-11-10T23:01:09.360Z,8.00
2017-11-10T23:03:37.569Z,8.10
2017-11-10T23:06:05.011Z,8.10
2017-11-10T23:08:32.464Z,8.10
2017-11-10T23:10:59.904Z,8.10
2017-11-10T23:13:27.352Z,8.10
2017-11-10T23:15:55.552Z,8.10
2017-11-10T23:18:23.026Z,8.00
2017-11-10T23:20:50.465Z,8.00
2017-11-10T23:23:18.086Z,8.00
2017-11-10T23:25:46.682Z,7.90
2017-11-10T23:28:14.552Z,7.90
2017-11-10T23:30:42.669Z,7.90
2017-11-10T23:33:10.306Z,7.80
2017-11-10T23:35:37.784Z,7.80
2017-11-10T23:38:05.229Z,7.80
2017-11-10T23:40:32.673Z,7.70
2017-11-10T23:43:00.876Z,7.70
2017-11-10T23:45:28.330Z,7.70
2017-11-10T23:47:55.772Z,7.70
2017-11-10T23:50:23.214Z,7.70
2017-11-10T23:52:50.668Z,7.70
2017-11-10T23:55:18.150Z,7.70
2017-11-10T23:57:45.920Z,7.70
